sensor_id;sensor_type;location;lat;lon;timestamp;P1;durP1;ratioP1;P2;durP2;ratioP2
10166;SDS011;62970;53.130;8.244;2023-04-01T00:00:37;6.60;;;6.10;;
10166;SDS011;62970;53.130;8.244;2023-04-01T00:03:06;7.17;;;6.60;;
10166;SDS011;62970;53.130;8.244;2023-04-01T00:05:35;6.43;;;5.93;;
10166;SDS011;62970;53.130;8.244;2023-04-01T00:08:04;7.50;;;6.80;;
10166;SDS011;62970;53.130;8.244;2023-04-01T00:10:34;7.50;;;6.63;;
10166;SDS011;62970;53.130;8.244;2023-04-01T00:13:03;6.93;;;6.43;;
10166;SDS011;62970;53.130;8.244;2023-04-01T00:15:35;7.63;;;7.00;;
10166;SDS011;62970;53.130;8.244;2023-04-01T00:18:04;7.30;;;6.70;;
10166;SDS011;62970;53.130;8.244;2023-04-01T00:20:34;7.43;;;6.83;;
10166;SDS011;62970;53.130;8.244;2023-04-01T00:23:04;7.07;;;6.57;;
10166;SDS011;62970;53.130;8.244;2023-04-01T00:25:33;8.03;;;7.43;;
10166;SDS011;62970;53.130;8.244;2023-04-01T00:28:02;7.77;;;7.13;;
10166;SDS011;62970;53.130;8.244;2023-04-01T00:30:31;8.00;;;7.40;;
10166;SDS011;62970;53.130;8.244;2023-04-01T00:33:03;8.27;;;7.57;;
10166;SDS011;62970;53.130;8.244;2023-04-01T00:35:32;8.83;;;8.13;;
10166;SDS011;62970;53.130;8.244;2023-04-01T00:38:02;8.60;;;7.90;;
10166;SDS011;62970;53.130;8.244;2023-04-01T00:40:32;8.47;;;7.77;;
10166;SDS011;62970;53.130;8.244;2023-04-01T00:43:09;9.03;;;8.20;;
10166;SDS011;62970;53.130;8.244;2023-04-01T00:45:48;8.47;;;7.87;;
10166;SDS011;62970;53.130;8.244;2023-04-01T00:48:22;8.73;;;8.00;;
10166;SDS011;62970;53.130;8.244;2023-04-01T00:50:57;8.60;;;7.90;;
10166;SDS011;62970;53.130;8.244;2023-04-01T05:48:18;4.43;;;4.07;;
10166;SDS011;62970;53.130;8.244;2023-04-01T05:50:47;5.90;;;5.40;;
10166;SDS011;62970;53.130;8.244;2023-04-01T05:53:16;6.10;;;5.60;;
10166;SDS011;62970;53.130;8.244;2023-04-01T05:55:45;6.73;;;5.90;;
10166;SDS011;62970;53.130;8.244;2023-04-01T05:58:15;5.90;;;5.40;;
10166;SDS011;62970;53.130;8.244;2023-04-01T06:00:44;6.00;;;5.50;;
10166;SDS011;62970;53.130;8.244;2023-04-01T06:03:14;6.13;;;5.60;;
10166;SDS011;62970;53.130;8.244;2023-04-01T06:05:46;5.60;;;5.20;;
10166;SDS011;62970;53.130;8.244;2023-04-01T06:08:16;6.30;;;5.80;;
10166;SDS011;62970;53.130;8.244;2023-04-01T06:10:55;6.23;;;5.73;;
10166;SDS011;62970;53.130;8.244;2023-04-01T06:13:42;7.77;;;5.40;;
10166;SDS011;62970;53.130;8.244;2023-04-01T06:16:44;5.17;;;4.77;;
10166;SDS011;62970;53.130;8.244;2023-04-01T06:19:37;5.70;;;5.23;;
10166;SDS011;62970;53.130;8.244;2023-04-01T06:22:21;5.07;;;4.67;;
10166;SDS011;62970;53.130;8.244;2023-04-01T06:25:25;4.83;;;4.43;;
10166;SDS011;62970;53.130;8.244;2023-04-01T06:28:29;5.27;;;4.87;;
10166;SDS011;62970;53.130;8.244;2023-04-01T06:31:42;4.77;;;4.40;;
10166;SDS011;62970;53.130;8.244;2023-04-01T06:37:40;4.40;;;4.10;;
10166;SDS011;62970;53.130;8.244;2023-04-01T06:40:44;4.50;;;4.10;;
10166;SDS011;62970;53.130;8.244;2023-04-01T06:43:32;4.53;;;4.23;;
10166;SDS011;62970;53.130;8.244;2023-04-01T06:46:15;4.50;;;4.20;;
10166;SDS011;62970;53.130;8.244;2023-04-01T06:48:56;4.50;;;4.20;;
10166;SDS011;62970;53.130;8.244;2023-04-01T06:51:48;4.87;;;4.47;;
10166;SDS011;62970;53.130;8.244;2023-04-01T06:54:26;4.90;;;4.50;;
10166;SDS011;62970;53.130;8.244;2023-04-01T06:57:02;4.77;;;4.37;;
10166;SDS011;62970;53.130;8.244;2023-04-01T06:59:49;4.83;;;4.43;;
10166;SDS011;62970;53.130;8.244;2023-04-01T07:02:22;5.00;;;4.17;;
10166;SDS011;62970;53.130;8.244;2023-04-01T07:05:01;4.73;;;4.40;;
10166;SDS011;62970;53.130;8.244;2023-04-01T07:07:36;5.10;;;4.70;;
10166;SDS011;62970;53.130;8.244;2023-04-01T07:10:11;4.63;;;4.30;;
10166;SDS011;62970;53.130;8.244;2023-04-01T07:12:46;4.80;;;4.50;;
10166;SDS011;62970;53.130;8.244;2023-04-01T07:15:20;4.43;;;4.13;;
10166;SDS011;62970;53.130;8.244;2023-04-01T07:17:55;4.67;;;4.20;;
10166;SDS011;62970;53.130;8.244;2023-04-01T07:20:30;4.67;;;4.27;;
10166;SDS011;62970;53.130;8.244;2023-04-01T07:23:06;4.47;;;4.17;;
10166;SDS011;62970;53.130;8.244;2023-04-01T07:25:44;4.80;;;4.40;;
10166;SDS011;62970;53.130;8.244;2023-04-01T07:28:19;4.17;;;3.87;;
10166;SDS011;62970;53.130;8.244;2023-04-01T07:30:50;5.27;;;4.40;;
10166;SDS011;62970;53.130;8.244;2023-04-01T07:33:33;4.20;;;3.80;;
10166;SDS011;62970;53.130;8.244;2023-04-01T07:36:13;3.80;;;3.60;;
10166;SDS011;62970;53.130;8.244;2023-04-01T07:38:55;4.13;;;3.83;;
10166;SDS011;62970;53.130;8.244;2023-04-01T07:41:37;3.47;;;3.27;;
10166;SDS011;62970;53.130;8.244;2023-04-01T07:44:21;3.70;;;3.40;;
10166;SDS011;62970;53.130;8.244;2023-04-01T07:47:10;3.30;;;3.10;;
10166;SDS011;62970;53.130;8.244;2023-04-01T07:49:54;3.80;;;3.10;;
10166;SDS011;62970;53.130;8.244;2023-04-01T07:52:35;3.23;;;3.03;;
10166;SDS011;62970;53.130;8.244;2023-04-01T07:55:16;3.60;;;3.30;;
10166;SDS011;62970;53.130;8.244;2023-04-01T07:57:55;3.90;;;3.43;;
10166;SDS011;62970;53.130;8.244;2023-04-01T08:00:37;3.13;;;2.83;;
10166;SDS011;62970;53.130;8.244;2023-04-01T08:03:18;3.23;;;3.00;;
10166;SDS011;62970;53.130;8.244;2023-04-01T08:06:00;2.97;;;2.77;;
10166;SDS011;62970;53.130;8.244;2023-04-01T08:08:43;3.13;;;2.93;;
10166;SDS011;62970;53.130;8.244;2023-04-01T08:11:28;3.70;;;2.80;;
10166;SDS011;62970;53.130;8.244;2023-04-01T08:14:14;3.53;;;2.90;;
10166;SDS011;62970;53.130;8.244;2023-04-01T08:16:54;2.73;;;2.53;;
10166;SDS011;62970;53.130;8.244;2023-04-01T08:19:31;3.20;;;3.00;;
10166;SDS011;62970;53.130;8.244;2023-04-01T08:22:22;3.40;;;3.10;;
10166;SDS011;62970;53.130;8.244;2023-04-01T08:24:56;3.17;;;2.90;;
10166;SDS011;62970;53.130;8.244;2023-04-01T08:27:37;3.43;;;2.60;;
10166;SDS011;62970;53.130;8.244;2023-04-01T08:30:15;3.10;;;2.90;;
10166;SDS011;62970;53.130;8.244;2023-04-01T08:32:49;3.10;;;2.80;;
10166;SDS011;62970;53.130;8.244;2023-04-01T08:35:26;3.30;;;3.00;;
10166;SDS011;62970;53.130;8.244;2023-04-01T08:38:01;2.83;;;2.63;;
10166;SDS011;62970;53.130;8.244;2023-04-01T08:40:50;2.87;;;2.67;;
10166;SDS011;62970;53.130;8.244;2023-04-01T08:43:53;2.73;;;2.53;;
10166;SDS011;62970;53.130;8.244;2023-04-01T08:46:48;2.60;;;2.30;;
10166;SDS011;62970;53.130;8.244;2023-04-01T08:49:41;2.73;;;2.53;;
10166;SDS011;62970;53.130;8.244;2023-04-01T08:52:34;2.40;;;2.30;;
10166;SDS011;62970;53.130;8.244;2023-04-01T08:55:14;2.27;;;2.17;;
10166;SDS011;62970;53.130;8.244;2023-04-01T09:01:34;2.50;;;2.30;;
10166;SDS011;62970;53.130;8.244;2023-04-01T09:04:34;2.57;;;2.00;;
10166;SDS011;62970;53.130;8.244;2023-04-01T09:07:31;2.00;;;1.90;;
10166;SDS011;62970;53.130;8.244;2023-04-01T09:10:24;1.90;;;1.80;;
10166;SDS011;62970;53.130;8.244;2023-04-01T09:20:25;1.23;;;1.23;;
10166;SDS011;62970;53.130;8.244;2023-04-01T09:23:17;1.50;;;1.40;;
10166;SDS011;62970;53.130;8.244;2023-04-01T09:26:18;1.53;;;1.43;;
10166;SDS011;62970;53.130;8.244;2023-04-01T09:29:15;1.53;;;1.43;;
10166;SDS011;62970;53.130;8.244;2023-04-01T09:37:23;2.60;;;2.40;;
10166;SDS011;62970;53.130;8.244;2023-04-01T09:40:14;4.00;;;2.90;;
10166;SDS011;62970;53.130;8.244;2023-04-01T09:42:49;3.53;;;3.23;;
10166;SDS011;62970;53.130;8.244;2023-04-01T09:49:18;3.43;;;3.13;;
10166;SDS011;62970;53.130;8.244;2023-04-01T09:52:17;3.10;;;2.90;;
10166;SDS011;62970;53.130;8.244;2023-04-01T09:55:00;3.80;;;3.50;;
10166;SDS011;62970;53.130;8.244;2023-04-01T09:58:17;3.00;;;2.80;;
10166;SDS011;62970;53.130;8.244;2023-04-01T10:15:00;3.60;;;3.10;;
10166;SDS011;62970;53.130;8.244;2023-04-01T10:18:24;2.20;;;2.10;;
10166;SDS011;62970;53.130;8.244;2023-04-01T10:21:28;1.60;;;1.50;;
10166;SDS011;62970;53.130;8.244;2023-04-01T10:37:39;1.87;;;1.20;;
10166;SDS011;62970;53.130;8.244;2023-04-01T10:40:52;1.07;;;0.90;;
10166;SDS011;62970;53.130;8.244;2023-04-01T10:47:04;0.80;;;0.80;;
10166;SDS011;62970;53.130;8.244;2023-04-01T10:53:17;0.70;;;0.70;;
10166;SDS011;62970;53.130;8.244;2023-04-01T11:02:12;1.27;;;1.27;;
10166;SDS011;62970;53.130;8.244;2023-04-01T11:12:13;0.90;;;0.90;;
10166;SDS011;62970;53.130;8.244;2023-04-01T11:22:01;1.77;;;1.60;;
10166;SDS011;62970;53.130;8.244;2023-04-01T11:25:13;1.60;;;1.60;;
10166;SDS011;62970;53.130;8.244;2023-04-01T11:28:11;1.20;;;1.20;;
10166;SDS011;62970;53.130;8.244;2023-04-01T11:31:17;1.50;;;1.40;;
10166;SDS011;62970;53.130;8.244;2023-04-01T11:34:05;1.63;;;1.60;;
10166;SDS011;62970;53.130;8.244;2023-04-01T11:36:55;2.10;;;2.00;;
10166;SDS011;62970;53.130;8.244;2023-04-01T11:39:38;2.10;;;2.00;;
10166;SDS011;62970;53.130;8.244;2023-04-01T11:42:28;2.20;;;2.10;;
10166;SDS011;62970;53.130;8.244;2023-04-01T11:51:34;1.90;;;1.80;;
10166;SDS011;62970;53.130;8.244;2023-04-01T11:54:45;1.60;;;1.50;;
10166;SDS011;62970;53.130;8.244;2023-04-01T11:57:56;1.70;;;1.60;;
10166;SDS011;62970;53.130;8.244;2023-04-01T12:07:38;1.43;;;1.33;;
10166;SDS011;62970;53.130;8.244;2023-04-01T12:10:21;1.40;;;1.40;;
10166;SDS011;62970;53.130;8.244;2023-04-01T12:12:59;1.63;;;1.53;;
10166;SDS011;62970;53.130;8.244;2023-04-01T12:15:38;1.30;;;1.30;;
10166;SDS011;62970;53.130;8.244;2023-04-01T12:18:54;2.20;;;2.00;;
10166;SDS011;62970;53.130;8.244;2023-04-01T12:21:36;2.30;;;2.10;;
10166;SDS011;62970;53.130;8.244;2023-04-01T12:33:39;1.43;;;1.33;;
10166;SDS011;62970;53.130;8.244;2023-04-01T12:36:42;1.40;;;1.30;;
10166;SDS011;62970;53.130;8.244;2023-04-01T12:39:32;1.20;;;1.20;;
10166;SDS011;62970;53.130;8.244;2023-04-01T12:42:33;1.03;;;1.03;;
10166;SDS011;62970;53.130;8.244;2023-04-01T12:45:27;1.37;;;1.27;;
10166;SDS011;62970;53.130;8.244;2023-04-01T12:48:05;1.33;;;1.27;;
10166;SDS011;62970;53.130;8.244;2023-04-01T12:51:19;1.30;;;1.20;;
10166;SDS011;62970;53.130;8.244;2023-04-01T12:54:21;1.10;;;1.00;;
10166;SDS011;62970;53.130;8.244;2023-04-01T12:57:54;1.50;;;1.40;;
10166;SDS011;62970;53.130;8.244;2023-04-01T13:04:18;1.40;;;1.30;;
10166;SDS011;62970;53.130;8.244;2023-04-01T13:07:44;1.70;;;1.60;;
10166;SDS011;62970;53.130;8.244;2023-04-01T13:10:50;1.60;;;1.50;;
10166;SDS011;62970;53.130;8.244;2023-04-01T13:16:26;2.03;;;1.90;;
10166;SDS011;62970;53.130;8.244;2023-04-01T13:19:01;1.90;;;1.80;;
10166;SDS011;62970;53.130;8.244;2023-04-01T13:21:42;1.90;;;1.80;;
10166;SDS011;62970;53.130;8.244;2023-04-01T13:24:28;2.07;;;1.80;;
10166;SDS011;62970;53.130;8.244;2023-04-01T13:27:18;1.67;;;1.50;;
10166;SDS011;62970;53.130;8.244;2023-04-01T13:29:59;1.50;;;1.40;;
10166;SDS011;62970;53.130;8.244;2023-04-01T13:32:46;1.30;;;1.20;;
10166;SDS011;62970;53.130;8.244;2023-04-01T13:35:23;2.00;;;1.20;;
10166;SDS011;62970;53.130;8.244;2023-04-01T13:38:08;1.00;;;1.00;;
10166;SDS011;62970;53.130;8.244;2023-04-01T13:41:22;1.20;;;1.20;;
10166;SDS011;62970;53.130;8.244;2023-04-01T13:44:14;1.90;;;1.80;;
10166;SDS011;62970;53.130;8.244;2023-04-01T13:47:05;2.17;;;2.07;;
10166;SDS011;62970;53.130;8.244;2023-04-01T13:53:10;2.00;;;1.90;;
10166;SDS011;62970;53.130;8.244;2023-04-01T13:56:08;1.87;;;1.77;;
10166;SDS011;62970;53.130;8.244;2023-04-01T13:58:57;1.60;;;1.50;;
10166;SDS011;62970;53.130;8.244;2023-04-01T14:01:47;1.20;;;1.20;;
10166;SDS011;62970;53.130;8.244;2023-04-01T14:04:42;1.47;;;1.40;;
10166;SDS011;62970;53.130;8.244;2023-04-01T14:07:29;1.10;;;1.10;;
10166;SDS011;62970;53.130;8.244;2023-04-01T14:10:17;1.70;;;1.60;;
10166;SDS011;62970;53.130;8.244;2023-04-01T14:13:04;1.90;;;1.80;;
10166;SDS011;62970;53.130;8.244;2023-04-01T14:15:54;2.20;;;2.10;;
10166;SDS011;62970;53.130;8.244;2023-04-01T14:18:42;2.20;;;2.10;;
10166;SDS011;62970;53.130;8.244;2023-04-01T14:21:37;2.47;;;2.37;;
10166;SDS011;62970;53.130;8.244;2023-04-01T14:24:36;2.50;;;2.40;;
10166;SDS011;62970;53.130;8.244;2023-04-01T14:30:41;2.17;;;2.07;;
10166;SDS011;62970;53.130;8.244;2023-04-01T14:33:31;2.40;;;2.20;;
10166;SDS011;62970;53.130;8.244;2023-04-01T14:36:24;3.10;;;2.90;;
10166;SDS011;62970;53.130;8.244;2023-04-01T14:42:53;2.70;;;2.50;;
10166;SDS011;62970;53.130;8.244;2023-04-01T14:49:15;3.30;;;3.10;;
10166;SDS011;62970;53.130;8.244;2023-04-01T14:51:50;3.30;;;3.00;;
10166;SDS011;62970;53.130;8.244;2023-04-01T14:54:21;3.10;;;2.90;;
10166;SDS011;62970;53.130;8.244;2023-04-01T14:57:05;2.90;;;2.70;;
10166;SDS011;62970;53.130;8.244;2023-04-01T14:59:45;2.60;;;2.50;;
10166;SDS011;62970;53.130;8.244;2023-04-01T15:02:37;2.83;;;2.63;;
10166;SDS011;62970;53.130;8.244;2023-04-01T15:05:26;2.90;;;2.70;;
10166;SDS011;62970;53.130;8.244;2023-04-01T15:08:11;2.90;;;2.70;;
10166;SDS011;62970;53.130;8.244;2023-04-01T15:13:59;3.40;;;3.20;;
10166;SDS011;62970;53.130;8.244;2023-04-01T15:17:05;3.40;;;3.20;;
10166;SDS011;62970;53.130;8.244;2023-04-01T15:20:02;3.57;;;3.37;;
10166;SDS011;62970;53.130;8.244;2023-04-01T15:22:54;3.70;;;3.40;;
10166;SDS011;62970;53.130;8.244;2023-04-01T15:25:42;3.27;;;2.97;;
10166;SDS011;62970;53.130;8.244;2023-04-01T15:28:38;3.47;;;3.27;;
10166;SDS011;62970;53.130;8.244;2023-04-01T15:31:19;4.20;;;3.90;;
10166;SDS011;62970;53.130;8.244;2023-04-01T15:33:59;4.43;;;4.13;;
10166;SDS011;62970;53.130;8.244;2023-04-01T15:39:54;5.60;;;5.20;;
10166;SDS011;62970;53.130;8.244;2023-04-01T15:42:39;5.40;;;5.00;;
10166;SDS011;62970;53.130;8.244;2023-04-01T15:45:28;5.33;;;4.93;;
10166;SDS011;62970;53.130;8.244;2023-04-01T15:48:13;5.10;;;4.80;;
10166;SDS011;62970;53.130;8.244;2023-04-01T15:51:11;4.53;;;4.23;;
10166;SDS011;62970;53.130;8.244;2023-04-01T15:54:00;5.43;;;4.93;;
10166;SDS011;62970;53.130;8.244;2023-04-01T15:56:52;4.87;;;4.47;;
10166;SDS011;62970;53.130;8.244;2023-04-01T15:59:47;4.40;;;4.10;;
10166;SDS011;62970;53.130;8.244;2023-04-01T16:03:09;4.10;;;3.80;;
10166;SDS011;62970;53.130;8.244;2023-04-01T16:06:01;5.13;;;4.73;;
10166;SDS011;62970;53.130;8.244;2023-04-01T16:08:55;5.27;;;4.87;;
10166;SDS011;62970;53.130;8.244;2023-04-01T16:11:40;4.97;;;4.57;;
10166;SDS011;62970;53.130;8.244;2023-04-01T16:14:26;5.20;;;4.80;;
10166;SDS011;62970;53.130;8.244;2023-04-01T16:17:18;4.80;;;4.40;;
10166;SDS011;62970;53.130;8.244;2023-04-01T16:20:14;5.00;;;4.50;;
10166;SDS011;62970;53.130;8.244;2023-04-01T16:22:49;5.07;;;4.67;;
10166;SDS011;62970;53.130;8.244;2023-04-01T16:25:32;5.43;;;4.70;;
10166;SDS011;62970;53.130;8.244;2023-04-01T16:28:16;5.67;;;5.17;;
10166;SDS011;62970;53.130;8.244;2023-04-01T16:30:55;6.67;;;6.07;;
10166;SDS011;62970;53.130;8.244;2023-04-01T16:33:34;6.40;;;5.90;;
10166;SDS011;62970;53.130;8.244;2023-04-01T16:36:17;6.30;;;5.80;;
10166;SDS011;62970;53.130;8.244;2023-04-01T16:39:05;6.23;;;5.73;;
10166;SDS011;62970;53.130;8.244;2023-04-01T16:45:00;6.20;;;5.70;;
10166;SDS011;62970;53.130;8.244;2023-04-01T16:47:46;6.27;;;5.77;;
10166;SDS011;62970;53.130;8.244;2023-04-01T16:50:20;6.57;;;6.07;;
10166;SDS011;62970;53.130;8.244;2023-04-01T16:52:57;6.00;;;5.60;;
10166;SDS011;62970;53.130;8.244;2023-04-01T16:55:42;6.53;;;5.70;;
10166;SDS011;62970;53.130;8.244;2023-04-01T16:58:21;5.33;;;4.93;;
10166;SDS011;62970;53.130;8.244;2023-04-01T17:00:58;5.20;;;4.70;;
10166;SDS011;62970;53.130;8.244;2023-04-01T17:03:36;5.20;;;4.80;;
10166;SDS011;62970;53.130;8.244;2023-04-01T17:06:13;4.40;;;4.10;;
10166;SDS011;62970;53.130;8.244;2023-04-01T17:09:02;4.93;;;4.53;;
10166;SDS011;62970;53.130;8.244;2023-04-01T17:11:54;4.57;;;4.23;;
10166;SDS011;62970;53.130;8.244;2023-04-01T17:14:35;4.87;;;4.47;;
10166;SDS011;62970;53.130;8.244;2023-04-01T17:17:24;5.33;;;4.93;;
10166;SDS011;62970;53.130;8.244;2023-04-01T17:20:26;5.57;;;5.07;;
10166;SDS011;62970;53.130;8.244;2023-04-01T17:23:07;5.10;;;4.70;;
10166;SDS011;62970;53.130;8.244;2023-04-01T17:26:04;4.60;;;4.20;;
10166;SDS011;62970;53.130;8.244;2023-04-01T17:28:53;4.80;;;4.40;;
10166;SDS011;62970;53.130;8.244;2023-04-01T17:31:42;6.53;;;4.60;;
10166;SDS011;62970;53.130;8.244;2023-04-01T17:34:35;4.97;;;4.57;;
10166;SDS011;62970;53.130;8.244;2023-04-01T17:37:27;4.53;;;4.13;;
10166;SDS011;62970;53.130;8.244;2023-04-01T17:40:12;4.03;;;3.73;;
10166;SDS011;62970;53.130;8.244;2023-04-01T17:42:55;4.70;;;4.13;;
10166;SDS011;62970;53.130;8.244;2023-04-01T17:45:40;4.60;;;3.87;;
10166;SDS011;62970;53.130;8.244;2023-04-01T17:48:21;4.47;;;4.00;;
10166;SDS011;62970;53.130;8.244;2023-04-01T17:51:03;4.80;;;3.77;;
10166;SDS011;62970;53.130;8.244;2023-04-01T17:53:47;4.60;;;4.20;;
10166;SDS011;62970;53.130;8.244;2023-04-01T17:56:30;4.70;;;4.30;;
10166;SDS011;62970;53.130;8.244;2023-04-01T17:59:17;4.60;;;4.20;;
10166;SDS011;62970;53.130;8.244;2023-04-01T18:02:01;4.80;;;4.30;;
10166;SDS011;62970;53.130;8.244;2023-04-01T18:08:17;4.90;;;4.40;;
10166;SDS011;62970;53.130;8.244;2023-04-01T18:11:09;5.23;;;4.83;;
10166;SDS011;62970;53.130;8.244;2023-04-01T18:13:57;5.40;;;4.90;;
10166;SDS011;62970;53.130;8.244;2023-04-01T18:16:55;5.10;;;4.33;;
10166;SDS011;62970;53.130;8.244;2023-04-01T18:19:39;4.73;;;4.33;;
10166;SDS011;62970;53.130;8.244;2023-04-01T18:22:26;4.93;;;4.43;;
10166;SDS011;62970;53.130;8.244;2023-04-01T18:25:05;6.90;;;4.60;;
10166;SDS011;62970;53.130;8.244;2023-04-01T18:27:48;5.97;;;5.37;;
10166;SDS011;62970;53.130;8.244;2023-04-01T18:30:26;5.33;;;4.90;;
10166;SDS011;62970;53.130;8.244;2023-04-01T18:32:59;5.07;;;4.67;;
10166;SDS011;62970;53.130;8.244;2023-04-01T18:35:35;5.13;;;4.63;;
10166;SDS011;62970;53.130;8.244;2023-04-01T18:38:23;5.37;;;4.60;;
10166;SDS011;62970;53.130;8.244;2023-04-01T18:41:04;5.20;;;4.70;;
10166;SDS011;62970;53.130;8.244;2023-04-01T18:43:51;5.00;;;4.60;;
10166;SDS011;62970;53.130;8.244;2023-04-01T18:46:34;5.67;;;4.37;;
10166;SDS011;62970;53.130;8.244;2023-04-01T18:49:13;6.17;;;4.40;;
10166;SDS011;62970;53.130;8.244;2023-04-01T18:51:50;4.50;;;4.10;;
10166;SDS011;62970;53.130;8.244;2023-04-01T18:54:29;5.10;;;4.53;;
10166;SDS011;62970;53.130;8.244;2023-04-01T18:57:02;4.83;;;4.40;;
10166;SDS011;62970;53.130;8.244;2023-04-01T18:59:39;4.70;;;4.20;;
10166;SDS011;62970;53.130;8.244;2023-04-01T19:02:17;5.67;;;4.77;;
10166;SDS011;62970;53.130;8.244;2023-04-01T19:04:57;4.90;;;4.40;;
10166;SDS011;62970;53.130;8.244;2023-04-01T19:07:40;5.13;;;4.20;;
10166;SDS011;62970;53.130;8.244;2023-04-01T19:10:17;5.93;;;5.37;;
10166;SDS011;62970;53.130;8.244;2023-04-01T19:13:04;6.83;;;6.10;;
10166;SDS011;62970;53.130;8.244;2023-04-01T19:15:44;6.33;;;5.47;;
10166;SDS011;62970;53.130;8.244;2023-04-01T19:18:25;6.63;;;5.63;;
10166;SDS011;62970;53.130;8.244;2023-04-01T19:21:37;5.80;;;5.30;;
10166;SDS011;62970;53.130;8.244;2023-04-01T19:24:15;6.23;;;5.30;;
10166;SDS011;62970;53.130;8.244;2023-04-01T19:27:25;6.07;;;5.53;;
10166;SDS011;62970;53.130;8.244;2023-04-01T19:30:12;6.80;;;5.83;;
10166;SDS011;62970;53.130;8.244;2023-04-01T19:33:03;5.93;;;5.40;;
10166;SDS011;62970;53.130;8.244;2023-04-01T19:35:49;6.00;;;5.43;;
10166;SDS011;62970;53.130;8.244;2023-04-01T19:38:36;5.90;;;5.30;;
10166;SDS011;62970;53.130;8.244;2023-04-01T19:41:15;6.03;;;5.47;;
10166;SDS011;62970;53.130;8.244;2023-04-01T19:44:06;7.03;;;5.43;;
10166;SDS011;62970;53.130;8.244;2023-04-01T19:46:51;6.03;;;5.43;;
10166;SDS011;62970;53.130;8.244;2023-04-01T19:49:32;7.33;;;5.50;;
10166;SDS011;62970;53.130;8.244;2023-04-01T19:52:09;6.37;;;5.40;;
10166;SDS011;62970;53.130;8.244;2023-04-01T19:54:49;6.63;;;5.90;;
10166;SDS011;62970;53.130;8.244;2023-04-01T19:57:30;6.80;;;5.23;;
10166;SDS011;62970;53.130;8.244;2023-04-01T20:00:17;5.87;;;5.27;;
10166;SDS011;62970;53.130;8.244;2023-04-01T20:02:55;6.23;;;5.43;;
10166;SDS011;62970;53.130;8.244;2023-04-01T20:05:35;6.30;;;5.43;;
10166;SDS011;62970;53.130;8.244;2023-04-01T20:08:32;6.43;;;5.30;;
10166;SDS011;62970;53.130;8.244;2023-04-01T20:11:13;6.07;;;5.23;;
10166;SDS011;62970;53.130;8.244;2023-04-01T20:13:58;6.13;;;5.37;;
10166;SDS011;62970;53.130;8.244;2023-04-01T20:19:44;7.43;;;5.40;;
10166;SDS011;62970;53.130;8.244;2023-04-01T20:22:27;7.43;;;5.40;;
10166;SDS011;62970;53.130;8.244;2023-04-01T20:25:08;5.40;;;4.90;;
10166;SDS011;62970;53.130;8.244;2023-04-01T20:27:45;5.47;;;4.97;;
10166;SDS011;62970;53.130;8.244;2023-04-01T20:30:26;7.00;;;5.77;;
10166;SDS011;62970;53.130;8.244;2023-04-01T20:33:28;7.37;;;5.33;;
10166;SDS011;62970;53.130;8.244;2023-04-01T20:36:34;5.47;;;4.83;;
10166;SDS011;62970;53.130;8.244;2023-04-01T20:42:48;7.37;;;5.23;;
10166;SDS011;62970;53.130;8.244;2023-04-01T20:45:42;6.43;;;5.30;;
10166;SDS011;62970;53.130;8.244;2023-04-01T20:51:43;5.60;;;4.53;;
10166;SDS011;62970;53.130;8.244;2023-04-01T20:54:30;5.53;;;4.90;;
10166;SDS011;62970;53.130;8.244;2023-04-01T20:57:17;4.90;;;4.40;;
10166;SDS011;62970;53.130;8.244;2023-04-01T20:59:56;4.93;;;4.03;;
10166;SDS011;62970;53.130;8.244;2023-04-01T21:02:56;5.23;;;4.13;;
10166;SDS011;62970;53.130;8.244;2023-04-01T21:06:01;4.50;;;4.10;;
10166;SDS011;62970;53.130;8.244;2023-04-01T21:08:58;4.67;;;4.27;;
10166;SDS011;62970;53.130;8.244;2023-04-01T21:11:41;6.17;;;3.93;;
10166;SDS011;62970;53.130;8.244;2023-04-01T21:17:33;7.10;;;4.20;;
10166;SDS011;62970;53.130;8.244;2023-04-01T21:23:38;5.23;;;4.57;;
10166;SDS011;62970;53.130;8.244;2023-04-01T21:26:35;5.40;;;4.97;;
10166;SDS011;62970;53.130;8.244;2023-04-01T21:29:28;5.53;;;5.03;;
10166;SDS011;62970;53.130;8.244;2023-04-01T21:32:25;5.27;;;4.70;;
10166;SDS011;62970;53.130;8.244;2023-04-01T21:35:20;6.17;;;4.80;;
10166;SDS011;62970;53.130;8.244;2023-04-01T21:38:12;6.40;;;5.17;;
10166;SDS011;62970;53.130;8.244;2023-04-01T21:41:05;5.23;;;4.73;;
10166;SDS011;62970;53.130;8.244;2023-04-01T21:50:19;5.83;;;5.20;;
10166;SDS011;62970;53.130;8.244;2023-04-01T22:03:22;4.87;;;4.37;;
10166;SDS011;62970;53.130;8.244;2023-04-01T22:06:25;5.53;;;4.50;;
10166;SDS011;62970;53.130;8.244;2023-04-01T22:09:01;5.53;;;4.63;;
10166;SDS011;62970;53.130;8.244;2023-04-01T22:11:44;5.40;;;4.30;;
10166;SDS011;62970;53.130;8.244;2023-04-01T22:14:24;4.97;;;4.20;;
10166;SDS011;62970;53.130;8.244;2023-04-01T22:17:03;4.40;;;4.00;;
10166;SDS011;62970;53.130;8.244;2023-04-01T22:19:45;4.60;;;4.20;;
10166;SDS011;62970;53.130;8.244;2023-04-01T22:22:22;4.73;;;4.03;;
10166;SDS011;62970;53.130;8.244;2023-04-01T22:25:02;4.93;;;4.43;;
10166;SDS011;62970;53.130;8.244;2023-04-01T22:27:38;4.60;;;4.20;;
10166;SDS011;62970;53.130;8.244;2023-04-01T22:30:17;4.23;;;3.80;;
10166;SDS011;62970;53.130;8.244;2023-04-01T22:32:55;4.87;;;3.90;;
10166;SDS011;62970;53.130;8.244;2023-04-01T22:35:35;3.80;;;3.50;;
10166;SDS011;62970;53.130;8.244;2023-04-01T22:38:15;5.53;;;4.20;;
10166;SDS011;62970;53.130;8.244;2023-04-01T22:40:58;4.80;;;3.70;;
10166;SDS011;62970;53.130;8.244;2023-04-01T22:43:38;7.27;;;3.40;;
10166;SDS011;62970;53.130;8.244;2023-04-01T22:46:19;5.70;;;3.80;;
10166;SDS011;62970;53.130;8.244;2023-04-01T22:49:15;3.73;;;3.33;;
10166;SDS011;62970;53.130;8.244;2023-04-01T22:51:54;5.80;;;3.70;;
10166;SDS011;62970;53.130;8.244;2023-04-01T22:54:34;4.20;;;3.43;;
10166;SDS011;62970;53.130;8.244;2023-04-01T22:57:08;4.40;;;4.00;;
10166;SDS011;62970;53.130;8.244;2023-04-01T22:59:44;3.60;;;3.20;;
10166;SDS011;62970;53.130;8.244;2023-04-01T23:02:22;6.43;;;3.70;;
10166;SDS011;62970;53.130;8.244;2023-04-01T23:04:59;6.17;;;3.43;;
10166;SDS011;62970;53.130;8.244;2023-04-01T23:07:34;5.07;;;3.33;;
10166;SDS011;62970;53.130;8.244;2023-04-01T23:10:19;3.40;;;3.10;;
10166;SDS011;62970;53.130;8.244;2023-04-01T23:12:54;6.57;;;3.13;;
10166;SDS011;62970;53.130;8.244;2023-04-01T23:15:27;4.30;;;3.17;;
10166;SDS011;62970;53.130;8.244;2023-04-01T23:18:05;3.50;;;3.20;;
10166;SDS011;62970;53.130;8.244;2023-04-01T23:23:49;4.93;;;2.90;;
10166;SDS011;62970;53.130;8.244;2023-04-01T23:26:30;4.63;;;3.00;;
10166;SDS011;62970;53.130;8.244;2023-04-01T23:29:04;4.33;;;2.93;;
10166;SDS011;62970;53.130;8.244;2023-04-01T23:31:43;3.90;;;3.27;;
10166;SDS011;62970;53.130;8.244;2023-04-01T23:37:08;4.77;;;3.23;;
10166;SDS011;62970;53.130;8.244;2023-04-01T23:39:43;4.00;;;2.87;;
10166;SDS011;62970;53.130;8.244;2023-04-01T23:42:15;4.80;;;2.77;;
10166;SDS011;62970;53.130;8.244;2023-04-01T23:44:49;4.13;;;2.47;;
10166;SDS011;62970;53.130;8.244;2023-04-01T23:47:22;2.80;;;2.50;;
10166;SDS011;62970;53.130;8.244;2023-04-01T23:49:58;4.97;;;2.53;;
10166;SDS011;62970;53.130;8.244;2023-04-01T23:52:35;5.23;;;2.30;;
10166;SDS011;62970;53.130;8.244;2023-04-01T23:55:12;5.30;;;3.13;;
10166;SDS011;62970;53.130;8.244;2023-04-01T23:58:00;4.83;;;2.97;;
